Time;durP1;ratioP1;P1;durP2;ratioP2;P2;SDS_P1;SDS_P2;PMS_P1;PMS_P2;Temp;Humidity;BMP_temperature;BMP_pressure;BME280_temperature;BME280_humidity;BME280_pressure;Samples;Min_cycle;Max_cycle;Signal;HPM_P1;HPM_P2
2022/04/24 00:01:04;;;;;;;6.32;3.35;;;7.50;72.60;;;;;;4989453;28;20113;-80
2022/04/24 00:03:30;;;;;;;6.57;3.15;;;7.50;72.90;;;;;;4971795;28;20113;-80
2022/04/24 00:05:55;;;;;;;5.65;3.33;;;7.40;72.80;;;;;;4970776;28;20093;-80
2022/04/24 00:08:21;;;;;;;8.18;3.20;;;7.40;72.80;;;;;;4970575;28;20379;-80
2022/04/24 00:10:46;;;;;;;7.50;3.80;;;7.30;72.90;;;;;;4971983;28;20030;-80
2022/04/24 00:13:12;;;;;;;5.85;3.20;;;7.40;72.80;;;;;;4987005;28;20117;-81
2022/04/24 00:15:39;;;;;;;7.15;3.50;;;7.40;72.80;;;;;;4971762;28;20040;-81
2022/04/24 00:18:05;;;;;;;5.22;2.75;;;7.50;72.90;;;;;;4966729;28;20046;-81
2022/04/24 00:20:31;;;;;;;4.65;3.35;;;7.40;73.30;;;;;;4980296;28;20027;-81
2022/04/24 00:22:57;;;;;;;5.57;2.75;;;7.40;73.60;;;;;;4969576;28;20033;-80
2022/04/24 00:25:22;;;;;;;6.38;2.95;;;7.30;73.80;;;;;;4971502;28;20034;-81
2022/04/24 00:27:48;;;;;;;7.20;3.28;;;7.30;73.90;;;;;;4969949;28;20557;-80
2022/04/24 00:30:13;;;;;;;4.97;3.10;;;7.20;74.00;;;;;;4970990;28;20073;-80
2022/04/24 00:32:39;;;;;;;6.38;3.40;;;7.30;74.00;;;;;;4971376;28;20037;-80
2022/04/24 00:35:05;;;;;;;5.53;3.05;;;7.30;74.20;;;;;;4988332;28;20045;-80
2022/04/24 00:37:31;;;;;;;4.95;2.78;;;7.20;74.30;;;;;;4987524;28;20105;-80
2022/04/24 00:39:56;;;;;;;4.38;2.70;;;7.20;74.40;;;;;;4970993;28;20117;-80
2022/04/24 00:42:22;;;;;;;4.85;2.85;;;7.20;74.60;;;;;;4989924;28;20553;-80
2022/04/24 00:44:47;;;;;;;5.35;3.20;;;7.30;74.50;;;;;;4985203;28;20057;-80
2022/04/24 00:47:18;;;;;;;6.22;3.42;;;7.20;74.60;;;;;;4970801;28;20025;-80
2022/04/24 00:49:45;;;;;;;5.30;3.20;;;7.20;74.60;;;;;;4971758;28;20355;-80
2022/04/24 00:52:11;;;;;;;5.45;2.78;;;7.20;74.60;;;;;;4987178;28;20029;-80
2022/04/24 00:54:38;;;;;;;5.03;3.13;;;7.10;74.90;;;;;;4971442;28;20117;-80
2022/04/24 00:57:08;;;;;;;5.40;3.00;;;7.10;75.00;;;;;;4972041;28;20092;-80
2022/04/24 00:59:33;;;;;;;6.07;3.33;;;7.00;75.20;;;;;;4966440;28;20509;-80
2022/04/24 01:02:02;;;;;;;6.35;3.15;;;7.00;75.30;;;;;;4987457;28;20077;-80
2022/04/24 01:04:27;;;;;;;6.18;3.25;;;6.90;75.40;;;;;;4986922;28;20343;-80
2022/04/24 01:06:53;;;;;;;4.95;3.25;;;6.90;75.80;;;;;;4970438;28;20030;-80
2022/04/24 01:09:20;;;;;;;6.68;3.13;;;6.90;76.40;;;;;;4970939;28;20478;-80
2022/04/24 01:11:47;;;;;;;5.55;3.35;;;6.80;76.40;;;;;;4971154;28;20030;-80
2022/04/24 01:14:16;;;;;;;8.10;3.70;;;6.90;76.60;;;;;;4985006;28;20695;-80
2022/04/24 01:16:42;;;;;;;7.68;3.65;;;6.90;76.90;;;;;;4968550;28;20073;-80
2022/04/24 01:19:07;;;;;;;7.05;3.22;;;6.80;77.20;;;;;;4987651;28;20038;-80
2022/04/24 01:21:33;;;;;;;6.28;3.08;;;6.70;77.70;;;;;;4959588;28;20049;-80
2022/04/24 01:23:59;;;;;;;5.13;3.10;;;6.70;78.20;;;;;;4986710;28;20084;-80
2022/04/24 01:26:24;;;;;;;7.18;3.38;;;6.60;78.70;;;;;;4970043;28;20033;-80
2022/04/24 01:28:50;;;;;;;6.47;3.47;;;6.60;78.80;;;;;;4972774;28;20118;-80
2022/04/24 01:31:16;;;;;;;5.30;3.33;;;6.60;79.00;;;;;;4961189;28;20462;-80
2022/04/24 01:33:41;;;;;;;6.93;3.42;;;6.60;79.30;;;;;;4969748;28;20528;-80
2022/04/24 01:36:08;;;;;;;4.82;2.92;;;6.60;79.30;;;;;;4969992;28;20030;-80
2022/04/24 01:38:33;;;;;;;6.13;3.13;;;6.60;79.70;;;;;;4986415;28;20034;-80
2022/04/24 01:40:59;;;;;;;8.10;3.13;;;6.60;79.70;;;;;;4987978;28;20030;-80
2022/04/24 01:43:24;;;;;;;6.10;3.00;;;6.60;80.00;;;;;;4968340;28;20096;-80
2022/04/24 01:45:50;;;;;;;9.32;3.53;;;6.70;80.00;;;;;;4966768;28;20419;-80
2022/04/24 01:48:15;;;;;;;7.22;3.50;;;6.70;79.70;;;;;;4984192;28;20030;-80
2022/04/24 01:50:41;;;;;;;8.68;3.55;;;6.70;79.60;;;;;;4986211;28;20440;-80
2022/04/24 01:53:06;;;;;;;8.45;3.28;;;6.80;79.70;;;;;;4986159;28;20519;-80
2022/04/24 01:55:32;;;;;;;6.13;2.85;;;6.90;79.40;;;;;;4970730;28;20026;-80
2022/04/24 01:57:58;;;;;;;5.70;3.25;;;7.00;79.40;;;;;;4970387;28;20027;-80
2022/04/24 02:00:23;;;;;;;4.68;2.72;;;7.00;78.80;;;;;;4969259;28;20370;-80
2022/04/24 02:02:49;;;;;;;4.60;2.67;;;7.10;78.30;;;;;;4968146;28;20042;-80
2022/04/24 02:05:14;;;;;;;6.97;3.13;;;7.10;77.80;;;;;;4970987;28;20037;-80
2022/04/24 02:07:40;;;;;;;7.82;2.90;;;7.10;77.50;;;;;;4986090;28;20036;-80
2022/04/24 02:10:06;;;;;;;4.38;2.35;;;7.20;76.80;;;;;;4989135;28;20029;-80
2022/04/24 02:12:32;;;;;;;5.40;2.90;;;7.20;76.70;;;;;;4971016;28;20061;-80
2022/04/24 02:14:57;;;;;;;4.20;2.40;;;7.30;76.60;;;;;;4956988;28;20676;-80
2022/04/24 02:17:23;;;;;;;5.70;2.65;;;7.30;76.50;;;;;;4979865;28;20034;-80
2022/04/24 02:19:49;;;;;;;4.65;2.60;;;7.30;76.10;;;;;;4973140;28;20501;-80
2022/04/24 02:22:14;;;;;;;5.13;2.53;;;7.30;76.20;;;;;;4967835;28;20041;-80
2022/04/24 02:24:41;;;;;;;5.78;2.72;;;7.40;76.10;;;;;;4988188;28;20172;-80
2022/04/24 02:27:07;;;;;;;7.13;3.15;;;7.30;75.80;;;;;;4970733;28;20141;-80
2022/04/24 02:29:33;;;;;;;5.07;2.63;;;7.30;76.00;;;;;;4971103;28;20125;-80
2022/04/24 02:31:59;;;;;;;6.05;2.38;;;7.30;76.10;;;;;;4985799;28;21299;-80
2022/04/24 02:34:26;;;;;;;7.40;2.85;;;7.30;75.80;;;;;;4975451;28;20450;-80
2022/04/24 02:36:52;;;;;;;7.32;2.47;;;7.30;75.60;;;;;;4986078;28;20046;-80
2022/04/24 02:39:17;;;;;;;5.40;2.60;;;7.30;75.80;;;;;;4969584;28;20026;-81
2022/04/24 02:41:42;;;;;;;4.70;2.38;;;7.30;75.80;;;;;;4970119;28;20027;-81
2022/04/24 02:44:08;;;;;;;5.15;2.40;;;7.30;75.70;;;;;;4986270;28;20041;-80
2022/04/24 02:46:34;;;;;;;4.38;2.10;;;7.30;75.70;;;;;;4986344;28;20030;-80
2022/04/24 02:48:59;;;;;;;3.55;2.03;;;7.30;75.60;;;;;;4969325;28;20250;-80
2022/04/24 02:51:24;;;;;;;5.15;2.20;;;7.30;75.70;;;;;;4985797;28;20076;-80
2022/04/24 02:53:50;;;;;;;4.35;2.38;;;7.30;75.80;;;;;;4967739;28;20586;-80
2022/04/24 02:56:15;;;;;;;5.20;2.15;;;7.30;75.90;;;;;;4969584;28;20181;-80
2022/04/24 02:58:44;;;;;;;6.57;2.30;;;7.20;75.80;;;;;;4971336;28;20026;-81
2022/04/24 03:01:09;;;;;;;4.40;2.45;;;7.20;75.80;;;;;;4969213;28;20302;-81
2022/04/24 03:03:35;;;;;;;4.97;2.22;;;7.20;75.80;;;;;;4986510;28;20549;-81
2022/04/24 03:06:00;;;;;;;4.70;1.92;;;7.20;76.00;;;;;;4972147;28;20034;-81
2022/04/24 03:08:27;;;;;;;8.95;2.33;;;7.30;76.30;;;;;;4971981;28;20430;-81
2022/04/24 03:10:52;;;;;;;4.32;2.00;;;7.20;76.30;;;;;;4990276;28;20038;-81
2022/04/24 03:13:18;;;;;;;6.15;2.60;;;7.20;76.30;;;;;;4991116;28;20500;-81
2022/04/24 03:15:43;;;;;;;5.03;2.40;;;7.20;76.40;;;;;;4971966;28;20106;-81
2022/04/24 03:18:09;;;;;;;4.28;2.17;;;7.20;76.50;;;;;;4988216;28;20057;-81
2022/04/24 03:20:34;;;;;;;3.60;2.22;;;7.30;76.50;;;;;;4988275;28;20030;-80
2022/04/24 03:23:00;;;;;;;6.40;2.13;;;7.20;76.30;;;;;;4989274;28;20045;-80
2022/04/24 03:25:25;;;;;;;5.95;2.13;;;7.20;76.70;;;;;;4987693;28;20038;-80
2022/04/24 03:27:51;;;;;;;4.10;2.40;;;7.20;76.70;;;;;;4972863;28;20118;-80
2022/04/24 03:30:16;;;;;;;4.32;2.30;;;7.20;76.70;;;;;;4983616;28;20041;-81
2022/04/24 03:32:42;;;;;;;3.53;2.08;;;7.10;76.70;;;;;;4989921;28;20089;-80
2022/04/24 03:35:10;;;;;;;5.47;2.25;;;7.20;76.80;;;;;;4971671;28;20089;-80
2022/04/24 03:37:36;;;;;;;8.52;2.42;;;7.20;77.00;;;;;;4973417;28;20034;-78
2022/04/24 03:40:03;;;;;;;6.22;2.47;;;7.20;76.80;;;;;;4988648;28;20030;-78
2022/04/24 03:42:28;;;;;;;5.57;2.60;;;7.20;76.80;;;;;;4970646;28;20031;-78
2022/04/24 03:44:57;;;;;;;5.45;2.30;;;7.10;76.90;;;;;;4971637;28;20030;-78
2022/04/24 03:47:23;;;;;;;4.28;2.42;;;7.10;76.80;;;;;;4971142;28;20340;-78
2022/04/24 03:49:49;;;;;;;6.55;2.40;;;7.10;76.70;;;;;;4986745;28;20026;-78
2022/04/24 03:52:15;;;;;;;4.13;2.30;;;7.10;76.70;;;;;;4984704;28;20077;-78
2022/04/24 03:54:41;;;;;;;5.40;2.22;;;7.10;76.90;;;;;;4985928;28;20025;-78
2022/04/24 03:57:07;;;;;;;5.25;2.20;;;7.10;77.20;;;;;;4986917;28;20030;-78
2022/04/24 03:59:32;;;;;;;3.63;2.17;;;7.20;77.40;;;;;;4961246;28;20058;-78
2022/04/24 04:01:58;;;;;;;3.85;2.10;;;7.20;77.10;;;;;;4966434;28;20410;-78
2022/04/24 04:04:25;;;;;;;3.25;1.90;;;7.20;77.00;;;;;;4988645;28;20117;-78
2022/04/24 04:06:51;;;;;;;8.63;2.10;;;7.20;77.10;;;;;;4968699;28;20597;-78
2022/04/24 04:09:16;;;;;;;3.67;2.10;;;7.30;77.30;;;;;;4987999;28;20335;-78
2022/04/24 04:11:42;;;;;;;5.78;2.38;;;7.30;77.20;;;;;;4980685;28;20054;-78
2022/04/24 04:14:08;;;;;;;5.72;2.38;;;7.30;77.10;;;;;;4963667;28;20506;-78
2022/04/24 04:16:33;;;;;;;4.75;2.22;;;7.30;77.20;;;;;;4985010;28;20038;-78
2022/04/24 04:18:59;;;;;;;4.88;2.15;;;7.30;77.40;;;;;;4976329;28;20033;-78
2022/04/24 04:21:24;;;;;;;5.45;2.45;;;7.30;77.40;;;;;;4985773;28;20057;-78
2022/04/24 04:23:50;;;;;;;3.70;2.45;;;7.30;77.60;;;;;;4969958;28;20494;-78
2022/04/24 04:26:17;;;;;;;3.88;2.15;;;7.30;77.60;;;;;;4971015;28;20057;-78
2022/04/24 04:28:44;;;;;;;6.90;2.85;;;7.30;77.80;;;;;;4978606;28;20040;-79
2022/04/24 04:31:10;;;;;;;4.93;2.47;;;7.30;77.80;;;;;;4988864;28;20540;-78
2022/04/24 04:33:36;;;;;;;7.70;2.60;;;7.30;78.10;;;;;;4988510;28;20026;-79
2022/04/24 04:36:01;;;;;;;7.85;2.70;;;7.20;77.90;;;;;;4987162;28;20073;-79
2022/04/24 04:38:27;;;;;;;5.93;2.35;;;7.30;78.20;;;;;;4969304;28;20023;-79
2022/04/24 04:40:52;;;;;;;5.00;2.33;;;7.30;78.40;;;;;;4988168;28;20034;-79
2022/04/24 04:43:18;;;;;;;5.25;2.63;;;7.30;78.30;;;;;;4970588;28;20033;-79
2022/04/24 04:45:43;;;;;;;4.65;2.50;;;7.30;78.00;;;;;;4974845;28;20030;-79
2022/04/24 04:48:09;;;;;;;3.83;2.25;;;7.20;78.10;;;;;;4987786;28;20037;-78
2022/04/24 04:50:35;;;;;;;6.25;2.50;;;7.20;78.30;;;;;;4986451;28;20030;-78
2022/04/24 04:53:00;;;;;;;7.57;2.67;;;7.00;78.90;;;;;;4968560;28;20026;-78
2022/04/24 04:55:27;;;;;;;5.35;2.90;;;7.00;79.20;;;;;;4987850;28;20030;-78
2022/04/24 04:57:52;;;;;;;6.95;2.83;;;6.90;79.30;;;;;;4988624;28;20296;-78
2022/04/24 05:00:18;;;;;;;9.00;3.00;;;6.80;79.80;;;;;;4961931;28;20242;-78
2022/04/24 05:02:44;;;;;;;5.65;2.97;;;6.70;80.20;;;;;;4980714;28;20038;-78
2022/04/24 05:05:09;;;;;;;9.68;3.08;;;6.70;80.40;;;;;;4987425;28;20031;-78
2022/04/24 05:07:36;;;;;;;8.93;3.15;;;6.60;80.80;;;;;;4985731;28;20131;-78
2022/04/24 05:10:04;;;;;;;8.45;3.20;;;6.50;81.10;;;;;;4987790;28;20028;-78
2022/04/24 05:12:30;;;;;;;6.97;2.70;;;6.50;81.10;;;;;;4988037;28;20026;-79
2022/04/24 05:15:09;;;;;;;6.05;3.40;;;6.50;81.30;;;;;;4982684;28;20119;-78
2022/04/24 05:17:36;;;;;;;8.40;3.55;;;6.40;81.30;;;;;;4981222;28;20486;-78
2022/04/24 05:20:06;;;;;;;8.68;3.50;;;6.50;81.60;;;;;;4987860;28;20422;-78
2022/04/24 05:22:31;;;;;;;5.82;3.35;;;6.40;81.70;;;;;;4967740;28;20030;-78
2022/04/24 05:24:57;;;;;;;8.45;3.33;;;6.40;81.80;;;;;;4986706;28;20401;-78
2022/04/24 05:27:22;;;;;;;9.75;3.60;;;6.40;81.90;;;;;;4988190;28;20033;-78
2022/04/24 05:29:48;;;;;;;10.88;3.45;;;6.40;82.10;;;;;;4986297;28;20026;-78
2022/04/24 05:32:14;;;;;;;7.70;3.38;;;6.40;82.10;;;;;;4986751;28;20085;-78
2022/04/24 05:34:40;;;;;;;9.70;3.72;;;6.40;82.00;;;;;;4983918;28;20072;-78
2022/04/24 05:37:06;;;;;;;8.38;3.45;;;6.50;82.00;;;;;;4985005;28;20034;-80
2022/04/24 05:39:32;;;;;;;8.38;3.70;;;6.50;81.80;;;;;;4970367;28;20044;-81
2022/04/24 05:41:57;;;;;;;7.82;3.72;;;6.50;81.70;;;;;;4988830;28;20481;-81
2022/04/24 05:44:23;;;;;;;6.88;3.20;;;6.50;81.60;;;;;;4971373;28;20529;-81
2022/04/24 05:46:48;;;;;;;10.10;4.15;;;6.60;81.60;;;;;;4978679;28;20057;-81
2022/04/24 05:49:14;;;;;;;11.93;3.67;;;6.60;81.40;;;;;;4986960;28;20402;-81
2022/04/24 05:51:39;;;;;;;8.68;3.53;;;6.70;81.20;;;;;;4983917;28;20035;-81
2022/04/24 05:54:05;;;;;;;5.32;3.40;;;6.70;80.90;;;;;;4980193;28;20027;-81
2022/04/24 05:56:30;;;;;;;8.77;3.60;;;6.80;80.70;;;;;;4988229;28;20505;-81
2022/04/24 05:58:56;;;;;;;6.85;4.05;;;6.80;80.70;;;;;;4970966;28;20029;-81
2022/04/24 06:01:21;;;;;;;9.00;3.75;;;6.90;80.60;;;;;;4985301;28;20035;-81
2022/04/24 06:03:48;;;;;;;8.25;4.07;;;7.00;80.50;;;;;;4970905;28;20039;-81
2022/04/24 06:06:14;;;;;;;10.23;4.22;;;7.10;80.00;;;;;;4981040;28;20567;-81
2022/04/24 06:08:39;;;;;;;6.22;3.58;;;7.20;79.90;;;;;;4967984;28;20085;-81
2022/04/24 06:11:05;;;;;;;8.13;3.53;;;7.30;79.70;;;;;;4972064;28;20363;-81
2022/04/24 06:13:30;;;;;;;7.25;3.80;;;7.40;79.20;;;;;;4977491;28;20144;-81
2022/04/24 06:15:57;;;;;;;7.22;3.85;;;7.60;79.40;;;;;;4968076;28;20181;-81
2022/04/24 06:18:27;;;;;;;5.78;3.25;;;7.60;78.60;;;;;;4969256;28;20231;-81
2022/04/24 06:20:53;;;;;;;7.57;3.95;;;7.70;78.50;;;;;;4983983;28;20093;-81
2022/04/24 06:23:19;;;;;;;8.48;3.50;;;7.80;78.00;;;;;;4967782;28;20061;-81
2022/04/24 06:25:44;;;;;;;6.28;3.38;;;7.90;78.00;;;;;;4984306;28;20026;-81
2022/04/24 06:28:10;;;;;;;10.77;3.97;;;8.00;77.60;;;;;;4976687;28;20034;-81
2022/04/24 06:30:40;;;;;;;7.75;3.63;;;8.20;77.80;;;;;;4969037;28;20034;-81
2022/04/24 06:33:07;;;;;;;9.18;3.67;;;8.30;76.50;;;;;;4969392;28;20385;-81
2022/04/24 06:35:33;;;;;;;6.85;3.30;;;8.30;75.60;;;;;;4968325;28;20034;-81
2022/04/24 06:37:59;;;;;;;5.63;3.45;;;8.40;75.80;;;;;;4971580;28;20018;-81
2022/04/24 06:40:26;;;;;;;7.45;3.42;;;8.70;76.50;;;;;;4991167;28;20081;-81
2022/04/24 06:43:04;;;;;;;9.93;3.40;;;8.90;74.50;;;;;;4969567;28;20031;-81
2022/04/24 06:45:33;;;;;;;5.65;2.65;;;9.10;73.90;;;;;;4983965;28;20534;-81
2022/04/24 06:48:11;;;;;;;6.65;3.00;;;9.20;73.20;;;;;;4990841;28;20393;-81
2022/04/24 06:50:38;;;;;;;5.53;3.25;;;9.30;73.00;;;;;;4970493;28;20084;-81
2022/04/24 06:53:19;;;;;;;5.53;2.95;;;9.30;72.70;;;;;;4983646;28;20045;-81
2022/04/24 06:55:45;;;;;;;5.93;2.77;;;9.40;72.40;;;;;;4973504;28;20038;-81
2022/04/24 06:58:13;;;;;;;5.97;3.15;;;9.60;71.50;;;;;;4971729;28;20026;-79
2022/04/24 07:00:42;;;;;;;5.55;3.20;;;9.80;71.20;;;;;;4970422;28;20604;-79
2022/04/24 07:03:16;;;;;;;7.90;3.03;;;10.00;70.70;;;;;;4963624;28;20443;-81
2022/04/24 07:05:42;;;;;;;8.70;3.28;;;10.10;69.00;;;;;;4971716;28;20026;-79
2022/04/24 07:08:08;;;;;;;5.18;2.55;;;10.30;69.70;;;;;;4970428;28;20037;-79
2022/04/24 07:10:33;;;;;;;9.50;2.80;;;10.60;68.40;;;;;;4971552;28;20892;-81
2022/04/24 07:12:59;;;;;;;6.03;3.05;;;10.70;67.60;;;;;;4972651;28;20034;-81
2022/04/24 07:15:29;;;;;;;6.05;3.00;;;11.00;67.10;;;;;;4980848;28;20198;-81
2022/04/24 07:17:56;;;;;;;6.78;2.50;;;11.00;65.70;;;;;;4961977;28;20573;-82
2022/04/24 07:20:22;;;;;;;8.10;2.30;;;11.00;66.20;;;;;;4989889;28;20033;-82
2022/04/24 07:22:58;;;;;;;6.93;2.60;;;11.20;66.60;;;;;;4987056;28;20030;-81
2022/04/24 07:25:25;;;;;;;4.18;2.30;;;11.60;65.40;;;;;;4983349;28;20089;-81
2022/04/24 07:27:51;;;;;;;4.13;2.33;;;11.90;64.20;;;;;;4971237;28;20031;-80
2022/04/24 07:30:19;;;;;;;5.75;2.50;;;11.70;62.20;;;;;;4989852;28;20045;-79
2022/04/24 07:32:47;;;;;;;9.77;2.65;;;12.00;62.10;;;;;;4971967;28;20041;-79
2022/04/24 07:35:16;;;;;;;4.57;2.28;;;12.10;60.80;;;;;;4982952;28;20041;-80
2022/04/24 07:37:42;;;;;;;6.00;2.72;;;12.10;60.00;;;;;;4986117;28;20125;-80
2022/04/24 07:40:10;;;;;;;4.65;2.30;;;12.20;61.20;;;;;;4989227;28;20497;-80
2022/04/24 07:42:51;;;;;;;7.18;2.50;;;12.50;60.60;;;;;;4971929;28;20030;-79
2022/04/24 07:45:38;;;;;;;5.50;2.93;;;12.70;60.50;;;;;;4986235;28;20023;-79
2022/04/24 07:48:05;;;;;;;5.50;2.42;;;12.90;60.30;;;;;;4976234;28;20042;-79
2022/04/24 07:50:40;;;;;;;5.65;2.45;;;12.90;59.70;;;;;;4969512;28;20521;-80
2022/04/24 07:53:06;;;;;;;4.82;2.25;;;13.00;59.50;;;;;;4965809;28;20474;-80
2022/04/24 07:55:32;;;;;;;5.18;2.47;;;13.30;59.50;;;;;;4979424;28;20053;-80
2022/04/24 07:57:58;;;;;;;5.15;2.10;;;13.30;58.30;;;;;;4972120;28;20022;-80
2022/04/24 08:00:26;;;;;;;6.00;2.15;;;13.30;58.50;;;;;;4971517;28;20474;-80
2022/04/24 08:02:56;;;;;;;6.25;2.22;;;13.30;57.60;;;;;;4988591;28;20030;-79
2022/04/24 08:05:52;;;;;;;5.90;1.93;;;13.60;57.80;;;;;;4975469;28;20069;-79
2022/04/24 08:08:19;;;;;;;4.85;2.35;;;13.80;58.80;;;;;;4958307;28;20491;-80
2022/04/24 08:10:50;;;;;;;3.38;2.15;;;14.00;58.00;;;;;;4975766;28;20567;-80
2022/04/24 08:13:20;;;;;;;4.70;2.60;;;13.80;57.00;;;;;;4989558;28;20022;-80
2022/04/24 08:15:46;;;;;;;6.80;2.38;;;13.20;58.80;;;;;;4988188;28;20038;-80
2022/04/24 08:18:12;;;;;;;5.68;2.60;;;13.00;58.10;;;;;;4987670;28;20031;-80
2022/04/24 08:20:39;;;;;;;5.35;2.60;;;12.70;58.60;;;;;;4969965;28;20014;-79
2022/04/24 08:23:06;;;;;;;4.07;2.35;;;12.80;60.00;;;;;;4967626;28;20035;-80
2022/04/24 08:25:36;;;;;;;5.82;2.20;;;12.60;59.40;;;;;;4971258;28;20030;-79
2022/04/24 08:28:06;;;;;;;4.00;2.23;;;12.50;60.10;;;;;;4971795;28;20062;-79
2022/04/24 08:30:34;;;;;;;5.65;2.67;;;12.40;59.50;;;;;;4984535;28;20815;-79
2022/04/24 08:33:00;;;;;;;8.48;2.50;;;12.70;59.80;;;;;;4970552;28;20053;-79
2022/04/24 08:35:25;;;;;;;6.00;2.63;;;12.80;60.00;;;;;;4987161;28;20034;-79
2022/04/24 08:37:51;;;;;;;8.32;2.40;;;13.00;61.30;;;;;;4968904;28;20502;-80
2022/04/24 08:40:20;;;;;;;5.03;2.42;;;13.30;58.80;;;;;;4971143;28;20053;-80
2022/04/24 08:42:45;;;;;;;4.15;2.10;;;13.40;59.50;;;;;;4981055;28;20474;-80
2022/04/24 08:45:13;;;;;;;5.03;2.15;;;13.70;57.00;;;;;;4969743;28;20042;-80
2022/04/24 08:47:39;;;;;;;5.28;2.20;;;14.00;56.80;;;;;;4963423;28;20556;-79
2022/04/24 08:50:05;;;;;;;6.75;2.58;;;14.80;56.50;;;;;;4987682;28;20034;-80
2022/04/24 08:52:31;;;;;;;4.45;2.10;;;15.40;54.20;;;;;;4987118;28;20406;-80
2022/04/24 08:54:58;;;;;;;3.67;2.00;;;15.50;52.90;;;;;;4988301;28;20030;-80
2022/04/24 08:57:30;;;;;;;5.38;2.08;;;15.00;52.20;;;;;;4988671;28;20034;-80
2022/04/24 09:00:00;;;;;;;3.67;1.83;;;15.20;53.70;;;;;;4976535;28;20109;-80
2022/04/24 09:02:26;;;;;;;4.95;2.25;;;15.80;52.90;;;;;;4970498;28;20035;-80
2022/04/24 09:04:53;;;;;;;6.40;2.13;;;15.60;51.20;;;;;;4986882;28;20490;-80
2022/04/24 09:07:19;;;;;;;3.35;1.83;;;15.50;50.00;;;;;;4985158;28;20033;-80
2022/04/24 09:09:47;;;;;;;4.85;1.73;;;15.90;50.70;;;;;;4987591;28;20022;-80
2022/04/24 09:12:17;;;;;;;9.15;2.17;;;15.90;50.40;;;;;;4985289;28;20386;-80
2022/04/24 09:14:51;;;;;;;5.32;1.98;;;16.70;49.80;;;;;;4987890;28;20026;-80
2022/04/24 09:17:20;;;;;;;3.67;1.77;;;16.40;48.40;;;;;;4980511;28;20038;-80
2022/04/24 09:19:46;;;;;;;5.80;2.13;;;16.30;47.60;;;;;;4969689;28;20501;-80
2022/04/24 09:22:12;;;;;;;3.67;1.70;;;16.20;46.30;;;;;;4985155;28;20027;-80
2022/04/24 09:24:49;;;;;;;6.28;1.90;;;15.60;49.50;;;;;;4969379;28;20037;-80
2022/04/24 09:27:29;;;;;;;5.03;1.98;;;16.10;48.40;;;;;;4985523;28;20026;-80
2022/04/24 09:30:00;;;;;;;5.85;2.08;;;16.10;48.20;;;;;;4969492;28;20185;-80
2022/04/24 09:32:30;;;;;;;4.88;2.00;;;16.30;48.70;;;;;;4963246;28;20408;-80
2022/04/24 09:34:56;;;;;;;5.15;2.05;;;16.70;47.90;;;;;;4980515;28;20527;-80
2022/04/24 09:37:22;;;;;;;6.70;2.05;;;16.50;48.40;;;;;;4976489;28;20022;-80
2022/04/24 09:39:49;;;;;;;5.07;1.70;;;16.70;47.60;;;;;;4969904;28;20026;-80
2022/04/24 09:42:16;;;;;;;4.35;1.98;;;16.10;49.60;;;;;;4969121;28;20294;-80
2022/04/24 09:44:44;;;;;;;2.58;1.60;;;15.60;48.40;;;;;;4981033;28;20062;-80
2022/04/24 09:47:11;;;;;;;4.35;1.90;;;15.00;49.60;;;;;;4969501;28;20058;-80
2022/04/24 09:49:39;;;;;;;4.20;1.80;;;15.90;49.80;;;;;;4986614;28;20034;-81
2022/04/24 09:52:13;;;;;;;4.72;1.95;;;16.20;47.40;;;;;;4986436;28;20251;-81
2022/04/24 09:54:43;;;;;;;4.80;2.00;;;16.30;48.20;;;;;;4989697;28;20054;-81
2022/04/24 09:57:10;;;;;;;8.20;2.10;;;16.40;46.90;;;;;;4990979;28;20050;-81
2022/04/24 09:59:37;;;;;;;3.53;1.65;;;16.70;48.40;;;;;;4972315;28;20092;-81
2022/04/24 10:02:04;;;;;;;6.40;1.90;;;17.00;47.60;;;;;;4971348;28;20422;-81
2022/04/24 10:04:30;;;;;;;5.90;1.95;;;16.50;47.40;;;;;;4973668;28;20027;-81
2022/04/24 10:06:57;;;;;;;6.95;2.30;;;16.40;48.20;;;;;;4962203;28;20037;-81
2022/04/24 10:09:24;;;;;;;5.95;1.90;;;16.30;49.80;;;;;;4971993;28;20042;-81
2022/04/24 10:11:50;;;;;;;3.40;2.08;;;16.00;49.50;;;;;;4972104;28;20023;-81
2022/04/24 10:14:17;;;;;;;5.40;1.98;;;15.80;50.20;;;;;;4987263;28;20068;-81
2022/04/24 10:17:00;;;;;;;5.10;2.08;;;16.30;50.50;;;;;;4965604;28;20061;-81
2022/04/24 10:19:57;;;;;;;4.47;2.10;;;16.30;49.50;;;;;;4966513;28;20033;-81
2022/04/24 10:22:38;;;;;;;4.45;1.80;;;16.00;50.10;;;;;;4960805;28;20054;-81
2022/04/24 10:25:07;;;;;;;4.30;1.80;;;15.80;48.10;;;;;;4989857;28;20118;-81
2022/04/24 10:27:44;;;;;;;4.50;1.90;;;16.50;48.60;;;;;;4972212;28;20406;-81
2022/04/24 10:30:22;;;;;;;3.88;2.10;;;16.60;47.00;;;;;;4988701;28;20010;-81
2022/04/24 10:32:49;;;;;;;5.07;2.10;;;17.10;46.30;;;;;;4972192;28;20032;-81
2022/04/24 10:35:19;;;;;;;4.40;1.88;;;16.90;49.20;;;;;;4973797;28;20077;-81
2022/04/24 10:37:47;;;;;;;3.88;1.90;;;17.50;46.10;;;;;;4971899;28;20019;-81
2022/04/24 10:40:19;;;;;;;6.38;1.77;;;17.90;48.40;;;;;;4991281;28;20038;-81
2022/04/24 10:42:46;;;;;;;5.95;1.80;;;17.70;46.60;;;;;;4992021;28;20701;-81
2022/04/24 10:45:14;;;;;;;7.25;2.13;;;17.80;46.80;;;;;;4969842;28;20042;-81
2022/04/24 10:47:42;;;;;;;4.18;1.75;;;17.80;44.60;;;;;;4986195;28;20222;-81
2022/04/24 10:50:09;;;;;;;4.97;2.17;;;17.70;47.20;;;;;;4991917;28;20046;-81
2022/04/24 10:52:43;;;;;;;4.30;2.05;;;17.60;45.90;;;;;;4973167;28;20125;-81
2022/04/24 10:55:12;;;;;;;2.97;1.80;;;17.70;47.20;;;;;;4973070;28;20503;-81
2022/04/24 10:57:42;;;;;;;4.30;1.85;;;17.40;45.60;;;;;;4987778;28;20491;-81
2022/04/24 11:00:35;;;;;;;3.92;2.03;;;17.70;46.70;;;;;;4966519;28;20376;-81
2022/04/24 11:03:07;;;;;;;4.15;2.30;;;18.00;45.00;;;;;;4972542;28;20164;-81
2022/04/24 11:05:37;;;;;;;4.78;2.03;;;18.10;44.60;;;;;;4994020;28;20038;-81
2022/04/24 11:08:04;;;;;;;4.35;2.17;;;18.20;45.60;;;;;;4991774;28;20026;-81
2022/04/24 11:10:37;;;;;;;6.25;2.13;;;17.50;46.20;;;;;;4973349;28;20050;-81
2022/04/24 11:13:02;;;;;;;6.75;2.40;;;17.10;49.50;;;;;;4987765;28;20045;-81
2022/04/24 11:15:28;;;;;;;3.35;2.05;;;17.70;46.30;;;;;;4974178;28;20394;-82
2022/04/24 11:17:54;;;;;;;3.45;1.98;;;18.10;46.30;;;;;;4980899;28;20169;-81
2022/04/24 11:20:19;;;;;;;3.85;2.00;;;17.70;46.60;;;;;;4992967;28;20030;-81
2022/04/24 11:22:48;;;;;;;4.60;1.85;;;18.10;47.00;;;;;;4971674;28;20551;-81
2022/04/24 11:25:16;;;;;;;3.45;1.85;;;17.90;46.40;;;;;;4977063;28;20034;-82
2022/04/24 11:27:44;;;;;;;4.72;1.88;;;17.80;45.40;;;;;;4977744;28;20034;-81
2022/04/24 11:30:42;;;;;;;3.70;1.90;;;17.60;45.70;;;;;;4991590;28;20054;-81
2022/04/24 11:33:08;;;;;;;5.65;2.17;;;18.30;46.70;;;;;;4956003;28;20369;-81
2022/04/24 11:35:39;;;;;;;4.10;1.98;;;18.40;46.60;;;;;;4980176;28;20022;-81
2022/04/24 11:38:06;;;;;;;4.18;2.10;;;18.30;46.00;;;;;;4983154;28;20556;-81
2022/04/24 11:40:38;;;;;;;4.28;2.17;;;19.00;45.20;;;;;;4992510;28;20490;-81
2022/04/24 11:43:04;;;;;;;4.57;2.20;;;18.40;45.60;;;;;;4993313;28;20029;-81
2022/04/24 11:51:15;;;;;;;4.78;2.47;;;17.20;47.20;;;;;;4993763;28;20061;-82
2022/04/24 11:53:41;;;;;;;5.57;2.17;;;16.50;48.90;;;;;;4966873;28;20037;-81
2022/04/24 11:56:07;;;;;;;6.93;2.15;;;16.10;49.80;;;;;;4976744;28;20030;-81
2022/04/24 11:58:38;;;;;;;6.20;2.50;;;16.80;49.90;;;;;;4977127;28;20434;-82
2022/04/24 12:01:07;;;;;;;5.60;2.30;;;16.60;50.20;;;;;;4974741;28;20042;-81
2022/04/24 12:03:34;;;;;;;5.18;2.38;;;17.50;48.90;;;;;;4996083;28;20545;-82
2022/04/24 12:06:03;;;;;;;8.05;2.10;;;18.10;46.10;;;;;;4978461;28;20049;-82
2022/04/24 12:08:43;;;;;;;4.32;2.10;;;18.30;46.70;;;;;;4982089;28;20145;-82
2022/04/24 12:11:09;;;;;;;6.15;2.10;;;17.70;47.50;;;;;;4994933;28;20375;-82
2022/04/24 12:13:35;;;;;;;5.25;2.45;;;17.40;48.30;;;;;;4976419;28;20030;-81
2022/04/24 12:16:01;;;;;;;4.22;1.92;;;18.40;47.90;;;;;;4977471;28;20035;-81
2022/04/24 12:18:28;;;;;;;6.50;2.60;;;19.40;46.40;;;;;;4995794;28;20015;-81
2022/04/24 12:20:54;;;;;;;4.80;2.53;;;19.80;45.90;;;;;;4995774;28;20519;-82
2022/04/24 12:23:20;;;;;;;4.40;2.30;;;20.10;42.70;;;;;;4987259;28;20201;-82
2022/04/24 12:25:51;;;;;;;6.65;2.20;;;20.00;44.20;;;;;;4996111;28;20449;-82
2022/04/24 12:28:32;;;;;;;6.80;2.08;;;20.00;44.60;;;;;;4991212;28;20077;-82
2022/04/24 12:31:01;;;;;;;3.55;2.22;;;20.00;43.20;;;;;;4975307;28;20113;-82
2022/04/24 12:33:27;;;;;;;7.15;2.53;;;20.30;43.20;;;;;;4986856;28;20033;-82
2022/04/24 12:35:54;;;;;;;4.90;2.58;;;20.70;42.80;;;;;;4976562;28;20120;-82
2022/04/24 12:38:22;;;;;;;7.63;2.50;;;18.90;43.90;;;;;;4992966;28;20026;-82
2022/04/24 12:40:59;;;;;;;7.85;2.88;;;18.60;46.20;;;;;;4975455;28;20027;-81
2022/04/24 12:43:30;;;;;;;5.65;2.47;;;19.00;45.40;;;;;;4979374;28;20473;-81
2022/04/24 12:45:56;;;;;;;7.22;2.53;;;18.40;47.40;;;;;;4973818;28;20093;-82
2022/04/24 12:48:23;;;;;;;7.00;2.53;;;18.20;47.80;;;;;;4975903;28;20809;-81
2022/04/24 12:50:52;;;;;;;6.65;2.60;;;18.20;48.00;;;;;;4978367;28;20045;-81
2022/04/24 12:53:19;;;;;;;7.28;2.83;;;18.90;46.90;;;;;;4971841;28;20660;-82
2022/04/24 12:55:46;;;;;;;5.50;2.30;;;19.50;47.30;;;;;;4994907;28;20083;-81
2022/04/24 12:58:14;;;;;;;5.60;2.70;;;19.80;46.60;;;;;;4988266;28;20072;-81
2022/04/24 13:00:41;;;;;;;5.90;2.90;;;19.20;45.50;;;;;;4987351;28;20022;-81